Time;durP1;ratioP1;P1;durP2;ratioP2;P2;SDS_P1;SDS_P2;PMS_P1;PMS_P2;Temp;Humidity;BMP_temperature;BMP_pressure;BME280_temperature;BME280_humidity;BME280_pressure;Samples;Min_cycle;Max_cycle;Signal;HPM_P1;HPM_P2
2023/10/22 00:01:13;;;;;;;5.90;2.50;;;15.10;99.90;;;;;;4995045;28;20443;-75
2023/10/22 00:03:39;;;;;;;3.60;2.37;;;15.10;99.90;;;;;;4992408;28;20217;-76
2023/10/22 00:06:05;;;;;;;3.63;2.60;;;15.10;99.90;;;;;;4993705;28;20607;-78
2023/10/22 00:08:30;;;;;;;8.63;2.90;;;15.10;99.90;;;;;;5003565;28;20527;-77
2023/10/22 00:10:57;;;;;;;3.40;2.27;;;15.10;99.90;;;;;;4994303;28;20191;-78
2023/10/22 00:13:22;;;;;;;3.10;2.40;;;15.20;99.90;;;;;;4994361;28;20228;-78
2023/10/22 00:15:48;;;;;;;3.97;2.30;;;15.20;99.90;;;;;;4992190;28;20478;-75
2023/10/22 00:18:14;;;;;;;4.93;2.30;;;15.20;99.90;;;;;;4995917;28;20181;-76
2023/10/22 00:20:41;;;;;;;3.40;2.07;;;15.20;99.90;;;;;;4993786;28;20276;-76
2023/10/22 00:23:07;;;;;;;5.37;2.20;;;15.30;99.90;;;;;;4991307;28;20543;-76
2023/10/22 00:25:36;;;;;;;4.33;2.10;;;15.10;99.90;;;;;;4991573;28;20519;-76
2023/10/22 00:28:03;;;;;;;5.50;2.50;;;15.10;99.90;;;;;;4993776;28;20416;-76
2023/10/22 00:30:30;;;;;;;3.73;2.20;;;15.10;99.90;;;;;;4994571;28;20436;-76
2023/10/22 00:32:56;;;;;;;3.07;2.33;;;15.00;99.90;;;;;;4990519;28;20435;-76
2023/10/22 00:35:21;;;;;;;4.20;2.57;;;15.00;99.90;;;;;;4995118;28;20420;-77
2023/10/22 00:37:47;;;;;;;7.67;2.60;;;15.00;99.90;;;;;;4996788;28;20552;-76
2023/10/22 00:40:14;;;;;;;3.30;2.10;;;14.90;99.90;;;;;;4989666;28;20201;-75
2023/10/22 00:42:39;;;;;;;5.57;2.73;;;14.80;99.90;;;;;;4997600;28;20200;-75
2023/10/22 00:45:06;;;;;;;4.50;2.20;;;14.80;99.90;;;;;;4993327;28;20448;-76
2023/10/22 00:47:33;;;;;;;4.93;2.40;;;14.80;99.90;;;;;;4997744;28;20657;-76
2023/10/22 00:49:59;;;;;;;5.40;2.80;;;14.70;99.90;;;;;;4991007;28;20439;-75
2023/10/22 00:52:27;;;;;;;2.80;2.10;;;14.70;99.90;;;;;;4998738;28;20493;-75
2023/10/22 00:54:54;;;;;;;3.70;2.23;;;14.70;99.90;;;;;;4991442;28;20230;-75
2023/10/22 00:57:22;;;;;;;4.23;2.20;;;14.70;99.90;;;;;;4993502;28;20434;-75
2023/10/22 00:59:50;;;;;;;6.30;2.97;;;14.50;99.90;;;;;;4995172;28;20448;-75
2023/10/22 01:02:16;;;;;;;4.70;2.03;;;14.50;99.90;;;;;;4993998;28;20512;-75
2023/10/22 01:04:41;;;;;;;4.43;2.20;;;14.50;99.90;;;;;;5022112;28;20584;-74
2023/10/22 01:07:07;;;;;;;2.93;2.17;;;14.50;99.90;;;;;;4992734;28;20178;-74
2023/10/22 01:09:33;;;;;;;4.80;2.27;;;14.50;99.90;;;;;;4993118;28;20197;-75
2023/10/22 01:12:00;;;;;;;3.27;2.30;;;14.50;99.90;;;;;;4996572;28;20303;-74
2023/10/22 01:14:25;;;;;;;4.10;2.03;;;14.40;99.90;;;;;;4992269;28;20189;-76
2023/10/22 01:16:51;;;;;;;3.03;2.30;;;14.40;99.90;;;;;;4998672;28;20424;-75
2023/10/22 01:19:17;;;;;;;5.57;2.43;;;14.40;99.90;;;;;;4998315;28;20334;-75
2023/10/22 01:21:43;;;;;;;4.37;2.33;;;14.40;99.90;;;;;;4995950;28;20189;-75
2023/10/22 01:24:09;;;;;;;3.43;2.30;;;14.40;99.90;;;;;;4994066;28;20448;-75
2023/10/22 01:26:42;;;;;;;3.77;2.50;;;14.30;99.90;;;;;;5020483;28;20928;-75
2023/10/22 01:29:07;;;;;;;3.53;2.07;;;14.30;99.90;;;;;;4995010;28;20577;-74
2023/10/22 01:31:33;;;;;;;5.47;2.53;;;14.30;99.90;;;;;;4996590;28;20412;-75
2023/10/22 01:33:59;;;;;;;8.03;2.40;;;14.30;99.90;;;;;;4998255;28;20684;-75
2023/10/22 01:36:24;;;;;;;5.70;2.20;;;14.30;99.90;;;;;;4993623;28;20554;-75
2023/10/22 01:38:50;;;;;;;5.80;2.63;;;14.20;99.90;;;;;;4994942;28;20205;-76
2023/10/22 01:41:15;;;;;;;2.70;2.10;;;14.20;99.90;;;;;;4994842;28;20849;-77
2023/10/22 01:43:41;;;;;;;4.63;2.43;;;14.20;99.90;;;;;;4996876;28;20296;-75
2023/10/22 01:46:07;;;;;;;3.00;2.00;;;14.20;99.90;;;;;;4996199;28;20191;-75
2023/10/22 01:48:32;;;;;;;4.83;2.17;;;14.20;99.90;;;;;;4997409;28;20576;-75
2023/10/22 01:50:58;;;;;;;4.33;2.43;;;14.20;99.90;;;;;;5000191;28;20280;-75
2023/10/22 01:53:23;;;;;;;6.33;2.70;;;14.20;99.90;;;;;;4997232;28;20185;-75
2023/10/22 01:55:49;;;;;;;3.70;2.00;;;14.10;99.90;;;;;;4996193;28;20187;-75
2023/10/22 01:58:15;;;;;;;4.13;2.43;;;14.10;99.90;;;;;;4994600;28;20177;-76
2023/10/22 02:00:41;;;;;;;6.43;2.53;;;14.10;99.90;;;;;;4998800;28;20252;-76
2023/10/22 02:03:07;;;;;;;4.47;2.50;;;14.10;99.90;;;;;;4992720;28;20201;-75
2023/10/22 02:05:33;;;;;;;7.80;2.07;;;14.00;99.90;;;;;;4992115;28;20443;-75
2023/10/22 02:07:59;;;;;;;4.13;2.33;;;14.00;99.90;;;;;;4992510;28;20249;-76
2023/10/22 02:10:25;;;;;;;5.63;1.90;;;14.00;99.90;;;;;;5000141;28;20515;-77
2023/10/22 02:12:50;;;;;;;2.97;1.93;;;14.00;99.90;;;;;;4996640;28;20432;-76
2023/10/22 02:15:16;;;;;;;3.70;2.10;;;13.90;99.90;;;;;;5002354;28;20743;-75
2023/10/22 02:17:42;;;;;;;4.17;2.33;;;13.90;99.90;;;;;;5004901;28;20179;-77
2023/10/22 02:20:09;;;;;;;5.33;2.80;;;13.90;99.90;;;;;;4998172;28;20766;-75
2023/10/22 02:22:36;;;;;;;4.87;2.10;;;13.80;99.90;;;;;;4995007;28;20478;-75
2023/10/22 02:25:02;;;;;;;4.40;2.10;;;13.80;99.90;;;;;;4996292;28;20447;-76
2023/10/22 02:27:28;;;;;;;4.53;2.30;;;13.70;99.90;;;;;;4997440;28;20412;-75
2023/10/22 02:29:53;;;;;;;3.97;2.20;;;13.80;99.90;;;;;;4996876;28;20555;-75
2023/10/22 02:32:19;;;;;;;3.50;1.97;;;13.70;99.90;;;;;;5000825;28;20330;-75
2023/10/22 02:34:45;;;;;;;3.47;2.17;;;13.70;99.90;;;;;;4995170;28;20565;-74
2023/10/22 02:37:10;;;;;;;3.87;2.00;;;13.80;99.90;;;;;;5005296;28;20264;-75
2023/10/22 02:39:36;;;;;;;4.23;2.17;;;13.80;99.90;;;;;;4996038;28;20204;-74
2023/10/22 02:42:01;;;;;;;7.97;2.40;;;13.70;99.90;;;;;;4992945;28;20255;-75
2023/10/22 02:44:27;;;;;;;3.70;2.03;;;13.80;99.90;;;;;;4995238;28;20211;-75
2023/10/22 02:46:53;;;;;;;3.70;2.20;;;13.70;99.90;;;;;;4998173;28;20181;-75
2023/10/22 02:49:18;;;;;;;2.83;1.93;;;13.70;99.90;;;;;;5000610;28;20206;-75
2023/10/22 02:51:44;;;;;;;3.63;2.13;;;13.70;99.90;;;;;;5002568;28;20189;-74
2023/10/22 02:54:10;;;;;;;5.40;2.00;;;13.80;99.90;;;;;;4993468;28;20186;-74
2023/10/22 02:56:35;;;;;;;4.13;2.20;;;13.90;99.90;;;;;;5003581;28;20181;-74
2023/10/22 02:59:01;;;;;;;2.93;2.00;;;13.80;99.90;;;;;;4989511;28;20252;-75
2023/10/22 03:01:26;;;;;;;5.40;1.73;;;13.80;99.90;;;;;;4994455;28;20198;-76
2023/10/22 03:03:52;;;;;;;4.90;2.50;;;13.80;99.90;;;;;;4998639;28;20217;-75
2023/10/22 03:06:18;;;;;;;5.30;2.53;;;13.80;99.90;;;;;;4997405;28;20189;-75
2023/10/22 03:08:44;;;;;;;3.23;1.90;;;13.80;99.90;;;;;;5000958;28;20816;-76
2023/10/22 03:11:17;;;;;;;3.53;2.10;;;13.80;99.90;;;;;;5001477;28;20227;-76
2023/10/22 03:13:45;;;;;;;3.67;1.93;;;13.80;99.90;;;;;;4987683;28;20542;-74
2023/10/22 03:16:15;;;;;;;3.90;2.00;;;13.70;99.90;;;;;;4996030;28;20455;-74
2023/10/22 03:18:44;;;;;;;3.43;2.37;;;13.70;99.90;;;;;;5001506;28;20451;-76
2023/10/22 03:21:19;;;;;;;3.27;1.90;;;13.80;99.90;;;;;;4999059;28;20441;-76
2023/10/22 03:23:46;;;;;;;2.90;2.13;;;13.70;99.90;;;;;;4998888;28;20571;-77
2023/10/22 03:26:17;;;;;;;5.50;2.00;;;13.80;99.90;;;;;;4993869;28;20436;-76
2023/10/22 03:28:44;;;;;;;5.63;2.10;;;13.80;99.90;;;;;;4993634;28;20468;-74
2023/10/22 03:31:09;;;;;;;2.70;1.80;;;13.80;99.90;;;;;;4994989;28;20479;-76
2023/10/22 03:33:35;;;;;;;5.33;2.23;;;13.80;99.90;;;;;;4996806;28;20444;-74
2023/10/22 03:36:02;;;;;;;2.60;1.77;;;13.80;99.90;;;;;;4999040;28;20219;-74
2023/10/22 03:38:29;;;;;;;3.00;1.80;;;13.70;99.90;;;;;;4992955;28;21011;-74
2023/10/22 03:41:05;;;;;;;3.13;1.77;;;13.70;99.90;;;;;;4996989;28;20448;-74
2023/10/22 03:43:32;;;;;;;3.27;2.23;;;13.70;99.90;;;;;;4997548;28;20215;-75
2023/10/22 03:45:59;;;;;;;2.47;1.80;;;13.70;99.90;;;;;;4991657;28;20428;-75
2023/10/22 03:48:25;;;;;;;3.10;1.73;;;13.70;99.90;;;;;;4998233;28;20475;-75
2023/10/22 03:50:51;;;;;;;2.53;1.67;;;13.70;99.90;;;;;;4988921;28;20437;-75
2023/10/22 03:53:17;;;;;;;4.30;1.90;;;13.60;99.90;;;;;;4992862;28;20433;-75
2023/10/22 03:55:43;;;;;;;7.40;2.00;;;13.60;99.90;;;;;;4998606;28;21032;-76
2023/10/22 03:58:08;;;;;;;4.57;1.60;;;13.60;99.90;;;;;;4999171;28;20189;-75
2023/10/22 04:00:34;;;;;;;3.50;2.00;;;13.70;99.90;;;;;;4990421;28;20201;-75
2023/10/22 04:03:00;;;;;;;3.43;2.00;;;13.70;99.90;;;;;;4995844;28;20531;-76
2023/10/22 04:05:26;;;;;;;2.40;1.83;;;13.60;99.90;;;;;;4997681;28;20189;-76
2023/10/22 04:07:52;;;;;;;4.33;1.90;;;13.60;99.90;;;;;;4991976;28;20432;-75
2023/10/22 04:10:17;;;;;;;2.57;1.70;;;13.70;99.90;;;;;;4996942;28;20268;-75
2023/10/22 04:12:43;;;;;;;6.53;2.00;;;13.80;99.90;;;;;;4994554;28;20186;-75
2023/10/22 04:15:09;;;;;;;2.33;1.73;;;13.80;99.90;;;;;;4996266;28;20192;-75
2023/10/22 04:17:35;;;;;;;4.10;2.03;;;13.80;99.90;;;;;;4993841;28;20208;-75
2023/10/22 04:20:01;;;;;;;4.10;1.90;;;13.80;99.90;;;;;;4993631;28;20535;-76
2023/10/22 04:22:26;;;;;;;3.57;1.90;;;13.80;99.90;;;;;;4991527;28;20190;-75
2023/10/22 04:24:53;;;;;;;3.80;2.17;;;13.70;99.90;;;;;;4999128;28;20185;-76
2023/10/22 04:27:19;;;;;;;3.87;2.00;;;13.70;99.90;;;;;;4991242;28;20185;-76
2023/10/22 04:29:46;;;;;;;2.60;1.80;;;13.70;99.90;;;;;;4994139;28;20971;-76
2023/10/22 04:32:12;;;;;;;7.50;2.17;;;13.80;99.90;;;;;;4997153;28;21107;-76
2023/10/22 04:34:39;;;;;;;5.70;2.17;;;13.70;99.90;;;;;;4997399;28;20446;-76
2023/10/22 04:37:05;;;;;;;4.83;2.00;;;13.70;99.90;;;;;;4993055;28;21413;-75
2023/10/22 04:39:30;;;;;;;3.43;1.70;;;13.70;99.90;;;;;;4996143;28;20515;-76
2023/10/22 04:41:56;;;;;;;3.53;1.60;;;13.70;99.90;;;;;;4998959;28;20184;-76
2023/10/22 04:44:22;;;;;;;6.23;3.57;;;13.70;99.90;;;;;;4991523;28;20213;-76
2023/10/22 04:46:49;;;;;;;3.57;1.93;;;13.70;99.90;;;;;;4998585;28;20184;-76
2023/10/22 04:49:14;;;;;;;3.67;2.03;;;13.70;99.90;;;;;;4998658;28;20206;-76
2023/10/22 04:51:40;;;;;;;5.13;2.17;;;13.70;99.90;;;;;;4992507;28;20974;-76
2023/10/22 04:54:06;;;;;;;3.20;2.07;;;13.60;99.90;;;;;;4996469;28;20185;-77
2023/10/22 04:56:32;;;;;;;3.33;1.70;;;13.50;99.90;;;;;;4993047;28;20197;-76
2023/10/22 04:58:58;;;;;;;5.77;2.17;;;13.60;99.90;;;;;;5010959;28;20255;-76
2023/10/22 05:01:23;;;;;;;3.23;1.77;;;13.60;99.90;;;;;;4998298;28;20432;-78
2023/10/22 05:03:49;;;;;;;3.93;1.63;;;13.50;99.90;;;;;;4997002;28;20728;-75
2023/10/22 05:06:14;;;;;;;5.50;1.90;;;13.60;99.90;;;;;;4992164;28;20185;-74
2023/10/22 05:08:41;;;;;;;5.17;2.07;;;13.60;99.90;;;;;;4997595;28;20202;-75
2023/10/22 05:11:12;;;;;;;2.83;1.63;;;13.60;99.90;;;;;;4996938;28;20230;-77
2023/10/22 05:13:38;;;;;;;2.87;1.93;;;13.60;99.90;;;;;;4996978;28;20435;-75
2023/10/22 05:16:03;;;;;;;4.70;2.20;;;13.60;99.90;;;;;;4993575;28;20518;-76
2023/10/22 05:18:29;;;;;;;4.27;1.93;;;13.60;99.90;;;;;;4992228;28;20285;-76
2023/10/22 05:21:04;;;;;;;5.33;2.20;;;13.60;99.90;;;;;;4995425;28;20612;-75
2023/10/22 05:23:30;;;;;;;6.80;2.53;;;13.50;99.90;;;;;;4993110;28;20252;-76
2023/10/22 05:26:11;;;;;;;4.87;2.23;;;13.60;99.90;;;;;;4992216;28;20424;-74
2023/10/22 05:28:37;;;;;;;12.50;2.07;;;13.60;99.90;;;;;;4997301;28;20816;-74
2023/10/22 05:31:12;;;;;;;3.20;1.57;;;13.60;99.90;;;;;;4990277;28;20428;-75
2023/10/22 05:33:37;;;;;;;6.87;2.37;;;13.60;99.90;;;;;;4992982;28;20423;-75
2023/10/22 05:36:03;;;;;;;4.50;1.70;;;13.70;99.90;;;;;;4994784;28;20427;-74
2023/10/22 05:38:29;;;;;;;3.60;1.90;;;13.70;99.90;;;;;;4988732;28;20206;-76
2023/10/22 05:40:54;;;;;;;3.40;1.90;;;13.60;99.90;;;;;;4994343;28;20184;-74
2023/10/22 05:43:20;;;;;;;2.20;1.60;;;13.60;99.90;;;;;;4994227;28;20251;-74
2023/10/22 05:45:46;;;;;;;5.43;1.83;;;13.80;99.90;;;;;;5018518;28;20173;-73
2023/10/22 05:48:11;;;;;;;5.03;1.80;;;13.80;99.90;;;;;;4989610;28;20177;-73
2023/10/22 05:50:39;;;;;;;3.30;1.70;;;13.80;99.90;;;;;;4994843;28;20450;-74
2023/10/22 05:53:05;;;;;;;8.07;2.33;;;13.80;99.90;;;;;;4997222;28;20613;-74
2023/10/22 05:55:30;;;;;;;6.57;2.30;;;13.70;99.90;;;;;;4994058;28;20488;-73
2023/10/22 05:57:56;;;;;;;3.83;1.77;;;13.60;99.90;;;;;;4996152;28;20185;-74
2023/10/22 06:00:22;;;;;;;3.60;2.00;;;13.70;99.90;;;;;;4989181;28;20219;-73
2023/10/22 06:02:48;;;;;;;4.07;1.80;;;13.70;99.90;;;;;;4998155;28;20208;-73
2023/10/22 06:05:13;;;;;;;3.97;2.00;;;13.70;99.90;;;;;;4986564;28;20812;-74
2023/10/22 06:07:39;;;;;;;10.60;2.50;;;13.70;99.90;;;;;;4999360;28;20209;-74
2023/10/22 06:10:05;;;;;;;10.60;1.80;;;13.70;99.90;;;;;;4997102;28;20212;-74
2023/10/22 06:12:31;;;;;;;4.33;1.90;;;13.80;99.90;;;;;;5000805;28;20257;-74
2023/10/22 06:15:03;;;;;;;3.77;1.60;;;13.70;99.90;;;;;;4990815;28;20978;-74
2023/10/22 06:17:31;;;;;;;6.03;2.20;;;13.80;99.90;;;;;;4992471;28;20200;-74
2023/10/22 06:19:57;;;;;;;4.97;1.63;;;13.70;99.90;;;;;;4995406;28;21391;-75
2023/10/22 06:22:23;;;;;;;2.80;1.70;;;13.80;99.90;;;;;;4994191;28;20436;-74
2023/10/22 06:24:48;;;;;;;4.43;1.77;;;13.80;99.90;;;;;;5002407;28;20243;-73
2023/10/22 06:27:14;;;;;;;4.33;1.90;;;13.80;99.90;;;;;;5002899;28;20256;-73
2023/10/22 06:29:39;;;;;;;4.07;2.07;;;13.90;99.90;;;;;;4999274;28;20285;-73
2023/10/22 06:32:05;;;;;;;5.17;2.00;;;13.90;99.90;;;;;;4993421;28;20185;-73
2023/10/22 06:34:31;;;;;;;4.60;2.27;;;13.90;99.90;;;;;;4995422;28;20817;-73
2023/10/22 06:36:56;;;;;;;6.00;3.27;;;13.90;99.90;;;;;;4997416;28;20629;-73
2023/10/22 06:39:22;;;;;;;4.83;2.50;;;13.90;99.90;;;;;;4996121;28;20208;-73
2023/10/22 06:41:47;;;;;;;4.43;2.53;;;14.00;99.90;;;;;;4993682;28;20624;-74
2023/10/22 06:44:13;;;;;;;7.90;2.53;;;14.00;99.90;;;;;;5000205;28;20235;-74
2023/10/22 06:46:38;;;;;;;7.13;2.10;;;14.20;99.90;;;;;;5000608;28;20178;-74
2023/10/22 06:49:04;;;;;;;5.80;2.00;;;14.30;99.90;;;;;;4998240;28;20217;-74
2023/10/22 06:51:30;;;;;;;2.80;1.67;;;14.20;99.90;;;;;;5000932;28;20173;-74
2023/10/22 06:53:55;;;;;;;2.60;1.70;;;14.30;99.90;;;;;;5000693;28;20867;-73
2023/10/22 06:56:21;;;;;;;4.10;2.13;;;14.30;99.90;;;;;;4988804;28;20916;-71
2023/10/22 06:58:46;;;;;;;4.63;1.90;;;14.40;99.90;;;;;;4995343;28;20232;-73
2023/10/22 07:01:14;;;;;;;9.67;2.00;;;14.50;99.90;;;;;;4993008;28;20190;-73
2023/10/22 07:03:45;;;;;;;2.50;1.60;;;14.50;99.90;;;;;;4993305;28;20299;-74
2023/10/22 07:06:10;;;;;;;4.53;1.90;;;14.60;99.90;;;;;;4997011;28;20455;-74
2023/10/22 07:08:36;;;;;;;4.97;2.03;;;14.60;99.90;;;;;;4999395;28;20436;-73
2023/10/22 07:11:02;;;;;;;5.87;1.70;;;14.40;99.90;;;;;;4993471;28;20188;-72
2023/10/22 07:13:28;;;;;;;3.40;1.57;;;14.50;99.90;;;;;;4999507;28;20680;-73
2023/10/22 07:15:54;;;;;;;2.90;1.60;;;14.50;99.90;;;;;;4995781;28;20428;-73
2023/10/22 07:18:20;;;;;;;3.93;1.80;;;14.50;99.90;;;;;;4998900;28;20304;-73
2023/10/22 07:20:47;;;;;;;2.80;1.80;;;14.40;99.90;;;;;;4993624;28;20205;-74
2023/10/22 07:23:13;;;;;;;6.03;1.53;;;14.50;99.90;;;;;;4999453;28;20830;-74
2023/10/22 07:25:39;;;;;;;3.13;2.00;;;14.50;99.90;;;;;;4997717;28;20416;-74
2023/10/22 07:28:05;;;;;;;3.20;1.80;;;14.40;99.90;;;;;;5001287;28;20185;-74
2023/10/22 07:30:34;;;;;;;4.33;1.70;;;14.30;99.90;;;;;;4997179;28;20470;-73
2023/10/22 07:33:00;;;;;;;3.80;1.80;;;14.40;99.90;;;;;;4994564;28;20424;-74
2023/10/22 07:35:25;;;;;;;5.17;2.00;;;14.40;99.90;;;;;;4997205;28;20955;-74
2023/10/22 07:37:51;;;;;;;5.00;2.40;;;14.40;99.90;;;;;;4997379;28;20649;-74
2023/10/22 07:40:17;;;;;;;3.90;2.20;;;14.40;99.90;;;;;;4998423;28;20194;-73
2023/10/22 07:42:44;;;;;;;5.37;2.07;;;14.50;99.90;;;;;;4993476;28;20243;-72
2023/10/22 07:45:10;;;;;;;3.60;2.00;;;14.40;99.90;;;;;;4994412;28;20417;-73
2023/10/22 07:47:37;;;;;;;4.17;1.83;;;14.50;99.90;;;;;;4992457;28;20481;-75
2023/10/22 07:50:07;;;;;;;6.50;2.23;;;14.50;99.90;;;;;;4996060;28;20539;-76
2023/10/22 07:52:34;;;;;;;3.93;1.80;;;14.60;99.90;;;;;;5000255;28;20555;-75
2023/10/22 07:55:00;;;;;;;3.33;1.80;;;14.60;99.90;;;;;;4998997;28;20444;-75
2023/10/22 07:57:27;;;;;;;3.30;1.90;;;14.70;99.90;;;;;;4994548;28;20425;-74
2023/10/22 07:59:53;;;;;;;5.53;2.90;;;14.70;99.90;;;;;;4994415;28;20201;-74
2023/10/22 08:02:18;;;;;;;3.83;2.10;;;14.60;99.90;;;;;;4995059;28;20444;-75
2023/10/22 08:04:44;;;;;;;3.03;1.63;;;14.60;99.90;;;;;;4994482;28;20456;-76
2023/10/22 08:07:10;;;;;;;4.93;2.13;;;14.60;99.90;;;;;;5001379;28;20189;-76
2023/10/22 08:09:35;;;;;;;4.33;1.83;;;14.70;99.90;;;;;;5002074;28;20197;-76
2023/10/22 08:12:01;;;;;;;6.33;2.03;;;14.70;99.90;;;;;;4993668;28;20196;-75
2023/10/22 08:14:27;;;;;;;3.37;1.73;;;14.80;99.90;;;;;;4996295;28;20259;-75
2023/10/22 08:16:52;;;;;;;7.03;1.93;;;14.80;99.90;;;;;;4994305;28;20186;-75
2023/10/22 08:19:18;;;;;;;2.93;1.50;;;14.80;99.90;;;;;;4993161;28;20209;-73
2023/10/22 08:21:43;;;;;;;4.67;1.93;;;15.00;99.90;;;;;;4993115;28;20186;-74
2023/10/22 08:24:09;;;;;;;5.70;1.60;;;15.00;99.90;;;;;;4996172;28;20253;-74
2023/10/22 08:26:35;;;;;;;4.10;2.23;;;15.20;99.90;;;;;;4991394;28;20549;-74
2023/10/22 08:29:00;;;;;;;6.70;2.20;;;15.20;99.90;;;;;;4987412;28;20209;-74
2023/10/22 08:31:26;;;;;;;3.53;1.90;;;15.30;99.90;;;;;;4994285;28;20189;-74
2023/10/22 08:33:52;;;;;;;3.73;1.70;;;15.30;99.90;;;;;;4993820;28;20668;-73
2023/10/22 08:36:18;;;;;;;5.03;3.50;;;15.30;99.90;;;;;;4996200;28;20431;-74
2023/10/22 08:38:43;;;;;;;4.53;1.80;;;15.40;99.90;;;;;;4992201;28;20201;-73
2023/10/22 08:41:22;;;;;;;3.60;1.80;;;15.40;99.90;;;;;;4991102;28;20181;-73
2023/10/22 08:43:49;;;;;;;4.93;2.13;;;15.30;99.90;;;;;;4987075;28;20217;-72
2023/10/22 08:46:15;;;;;;;5.37;1.77;;;15.30;99.90;;;;;;4991412;28;20425;-73
2023/10/22 08:48:41;;;;;;;4.60;1.90;;;15.30;99.90;;;;;;4987521;28;20452;-74
2023/10/22 08:51:08;;;;;;;4.13;1.87;;;15.30;99.90;;;;;;4994951;28;20541;-73
2023/10/22 08:53:33;;;;;;;3.83;2.00;;;15.40;99.90;;;;;;4992237;28;20447;-74
2023/10/22 08:56:01;;;;;;;5.17;1.90;;;15.40;99.90;;;;;;4989914;28;20471;-72
2023/10/22 08:58:27;;;;;;;4.20;2.03;;;15.30;99.90;;;;;;4993814;28;20201;-75
2023/10/22 09:00:53;;;;;;;6.67;1.70;;;15.40;99.90;;;;;;4993184;28;20503;-72
2023/10/22 09:03:21;;;;;;;6.33;2.17;;;15.40;99.90;;;;;;4986341;28;20479;-72
2023/10/22 09:05:48;;;;;;;5.13;2.40;;;15.50;99.90;;;;;;4988994;28;20482;-73
2023/10/22 09:08:14;;;;;;;6.73;3.40;;;15.50;99.90;;;;;;4994674;28;20945;-72
2023/10/22 09:10:40;;;;;;;6.33;2.47;;;15.60;99.90;;;;;;4997435;28;20517;-72
2023/10/22 09:13:13;;;;;;;6.40;2.50;;;15.70;99.90;;;;;;4996947;28;20955;-73
2023/10/22 09:15:46;;;;;;;9.30;2.30;;;15.70;99.90;;;;;;4992263;28;20443;-72
2023/10/22 09:18:12;;;;;;;6.53;2.40;;;15.80;99.90;;;;;;4983794;28;20438;-71
2023/10/22 09:20:39;;;;;;;5.33;2.20;;;15.80;99.90;;;;;;4986467;28;20453;-72
2023/10/22 09:23:20;;;;;;;7.37;2.63;;;15.90;99.90;;;;;;4986640;28;20472;-72
2023/10/22 09:25:47;;;;;;;4.17;1.90;;;16.00;99.90;;;;;;4988010;28;20436;-73
2023/10/22 09:28:20;;;;;;;5.83;2.73;;;16.00;99.90;;;;;;4993243;28;20796;-73
2023/10/22 09:30:46;;;;;;;17.50;2.40;;;16.00;99.90;;;;;;4992168;28;20487;-73
2023/10/22 09:33:11;;;;;;;5.47;2.33;;;16.00;99.90;;;;;;4995718;28;20527;-73
2023/10/22 09:35:37;;;;;;;5.77;2.30;;;16.00;99.90;;;;;;4991913;28;20506;-75
2023/10/22 09:38:03;;;;;;;7.10;2.10;;;16.00;99.90;;;;;;4989790;28;20216;-73
2023/10/22 09:40:35;;;;;;;9.83;2.13;;;16.00;99.90;;;;;;4991620;28;20491;-73
2023/10/22 09:43:04;;;;;;;7.83;2.27;;;16.10;99.90;;;;;;4997437;28;20467;-73
2023/10/22 09:45:31;;;;;;;6.00;2.00;;;16.10;99.90;;;;;;4988310;28;20779;-73
2023/10/22 09:47:59;;;;;;;9.10;2.67;;;16.10;99.90;;;;;;4978258;28;20495;-73
2023/10/22 09:50:30;;;;;;;4.60;2.53;;;16.10;99.90;;;;;;4985120;28;20514;-75
2023/10/22 09:52:58;;;;;;;7.53;2.00;;;16.10;99.90;;;;;;4986474;28;20432;-75
2023/10/22 09:55:24;;;;;;;10.50;2.60;;;16.10;99.90;;;;;;4982858;28;20819;-74
2023/10/22 09:57:50;;;;;;;5.40;2.23;;;16.10;99.90;;;;;;4984896;28;20450;-74
2023/10/22 10:00:17;;;;;;;9.33;2.27;;;16.20;99.90;;;;;;4987275;28;20202;-74
2023/10/22 10:02:44;;;;;;;5.40;2.13;;;16.30;99.90;;;;;;5016365;28;20456;-73
2023/10/22 10:05:10;;;;;;;4.83;1.93;;;16.30;99.90;;;;;;5016279;28;20867;-74
2023/10/22 10:07:39;;;;;;;7.87;2.70;;;16.30;99.90;;;;;;4980145;28;20444;-73
2023/10/22 10:10:05;;;;;;;11.50;2.50;;;16.30;99.90;;;;;;4987970;28;20532;-75
2023/10/22 10:12:34;;;;;;;7.07;3.13;;;16.40;99.90;;;;;;4998992;28;20418;-75
2023/10/22 10:15:00;;;;;;;6.40;2.30;;;16.50;99.90;;;;;;4981205;28;20571;-74
2023/10/22 10:17:25;;;;;;;10.40;2.47;;;16.40;99.90;;;;;;4981889;28;20437;-73
2023/10/22 10:19:51;;;;;;;8.47;2.33;;;16.60;99.90;;;;;;4989155;28;20213;-74
2023/10/22 10:22:36;;;;;;;6.90;2.00;;;16.60;99.90;;;;;;4987878;28;20704;-74
2023/10/22 10:25:27;;;;;;;13.60;3.00;;;16.60;99.90;;;;;;4983486;28;21286;-74
2023/10/22 10:27:53;;;;;;;4.63;2.10;;;16.70;99.90;;;;;;5010639;28;20472;-73
2023/10/22 10:30:20;;;;;;;8.10;2.40;;;16.70;99.90;;;;;;5017219;28;20976;-73
2023/10/22 10:32:48;;;;;;;6.27;2.10;;;16.70;99.90;;;;;;4986042;28;20259;-74
2023/10/22 10:35:15;;;;;;;7.13;2.30;;;16.70;99.90;;;;;;4994572;28;20455;-74
2023/10/22 10:38:15;;;;;;;6.37;2.30;;;16.70;99.90;;;;;;4988785;28;20512;-74
2023/10/22 10:40:51;;;;;;;4.80;2.53;;;16.80;99.90;;;;;;5017469;28;20431;-74
2023/10/22 10:43:18;;;;;;;9.30;2.30;;;16.90;99.90;;;;;;4984006;28;21032;-74
2023/10/22 10:46:24;;;;;;;5.50;2.43;;;17.00;99.90;;;;;;4986682;28;20433;-74
2023/10/22 10:48:50;;;;;;;6.03;2.53;;;17.00;99.90;;;;;;5011478;28;20456;-74
2023/10/22 10:51:24;;;;;;;8.33;2.10;;;17.10;99.90;;;;;;4990421;28;20445;-74
2023/10/22 10:54:02;;;;;;;5.93;2.27;;;17.30;99.90;;;;;;4979478;28;20872;-75
2023/10/22 10:56:51;;;;;;;9.27;2.30;;;17.50;99.90;;;;;;4983985;28;20955;-74
2023/10/22 10:59:30;;;;;;;5.40;2.40;;;17.60;99.90;;;;;;4983778;28;20478;-74
2023/10/22 11:02:11;;;;;;;6.90;2.43;;;17.70;99.90;;;;;;4991502;28;20508;-74
2023/10/22 11:04:43;;;;;;;5.60;2.23;;;17.80;99.90;;;;;;4982546;28;20547;-74
2023/10/22 11:07:08;;;;;;;7.43;2.40;;;17.90;99.90;;;;;;4990993;28;20446;-75
2023/10/22 11:09:35;;;;;;;5.70;2.53;;;17.80;99.90;;;;;;4989450;28;20456;-74
2023/10/22 11:12:05;;;;;;;6.87;2.30;;;17.80;99.90;;;;;;4995702;28;20264;-73
2023/10/22 11:14:36;;;;;;;8.50;2.83;;;17.90;99.90;;;;;;4996703;28;20450;-74
2023/10/22 11:17:02;;;;;;;8.87;2.80;;;18.00;99.90;;;;;;4990983;28;20965;-74
2023/10/22 11:19:30;;;;;;;5.70;2.30;;;18.00;99.90;;;;;;4994656;28;20459;-75
2023/10/22 11:21:56;;;;;;;6.13;2.07;;;18.00;99.90;;;;;;4992382;28;20435;-74
2023/10/22 11:24:30;;;;;;;6.80;2.47;;;18.00;99.90;;;;;;4983086;28;20472;-73
2023/10/22 11:27:00;;;;;;;5.80;2.20;;;17.90;99.90;;;;;;4987265;28;20439;-75
2023/10/22 11:29:26;;;;;;;8.80;1.83;;;18.10;99.90;;;;;;4986772;28;21330;-74
2023/10/22 11:31:59;;;;;;;4.97;2.63;;;18.10;99.90;;;;;;4990720;28;20463;-73
2023/10/22 11:34:25;;;;;;;8.43;2.57;;;18.10;99.90;;;;;;4986065;28;20195;-73
2023/10/22 11:36:58;;;;;;;4.43;3.37;;;18.30;99.90;;;;;;4988155;28;20433;-73
2023/10/22 11:39:33;;;;;;;5.90;2.83;;;18.50;99.90;;;;;;4989189;28;20458;-72
2023/10/22 11:41:59;;;;;;;12.30;2.33;;;18.80;99.90;;;;;;4986501;28;20433;-73
2023/10/22 11:44:33;;;;;;;5.47;2.53;;;19.00;99.90;;;;;;4991504;28;20489;-74
2023/10/22 11:47:18;;;;;;;7.57;2.63;;;19.20;99.90;;;;;;4990143;28;20935;-73
2023/10/22 11:49:46;;;;;;;5.73;2.80;;;19.50;99.90;;;;;;4986479;28;20455;-72
2023/10/22 11:52:17;;;;;;;4.50;2.27;;;21.00;99.90;;;;;;4987268;28;20443;-73
2023/10/22 11:54:44;;;;;;;4.63;2.43;;;22.70;99.90;;;;;;4986099;28;20433;-73
2023/10/22 11:57:09;;;;;;;4.47;2.33;;;24.40;99.10;;;;;;4990899;28;20444;-73
2023/10/22 11:59:35;;;;;;;3.93;3.30;;;25.40;95.90;;;;;;4991315;28;20452;-73
2023/10/22 12:02:00;;;;;;;5.27;2.23;;;26.40;91.30;;;;;;4990452;28;20197;-73
2023/10/22 12:04:26;;;;;;;6.20;2.30;;;27.20;87.20;;;;;;4988244;28;20723;-73
2023/10/22 12:06:52;;;;;;;7.40;2.67;;;27.80;81.70;;;;;;4988050;28;20181;-74
2023/10/22 12:09:17;;;;;;;5.50;3.00;;;26.70;76.10;;;;;;4990660;28;20649;-74
2023/10/22 12:11:43;;;;;;;5.10;2.37;;;25.70;76.60;;;;;;4993417;28;20180;-76
2023/10/22 12:14:09;;;;;;;5.90;2.80;;;24.80;80.90;;;;;;4992851;28;20245;-75
2023/10/22 12:16:35;;;;;;;8.77;2.67;;;24.10;81.00;;;;;;4993139;28;20224;-75
2023/10/22 12:19:01;;;;;;;4.47;2.40;;;23.30;82.90;;;;;;4989233;28;20640;-75
2023/10/22 12:21:26;;;;;;;4.33;2.10;;;22.80;85.00;;;;;;4992926;28;20189;-75
2023/10/22 12:23:52;;;;;;;5.90;2.50;;;23.00;87.20;;;;;;4985578;28;20208;-74
2023/10/22 12:26:18;;;;;;;4.33;2.30;;;24.10;89.60;;;;;;4991046;28;20177;-75
2023/10/22 12:28:43;;;;;;;5.63;2.37;;;25.70;82.90;;;;;;4992712;28;20223;-75
2023/10/22 12:31:09;;;;;;;6.23;2.20;;;26.80;77.40;;;;;;4995943;28;20178;-75
2023/10/22 12:33:34;;;;;;;7.33;2.50;;;27.40;73.50;;;;;;4993026;28;20197;-75
2023/10/22 12:36:03;;;;;;;5.53;2.60;;;27.70;70.00;;;;;;4990931;28;20229;-74
2023/10/22 12:38:28;;;;;;;4.17;2.00;;;27.80;67.20;;;;;;5026971;28;20205;-74
2023/10/22 12:40:54;;;;;;;4.97;2.20;;;27.90;66.60;;;;;;4994034;28;20944;-74
2023/10/22 12:43:19;;;;;;;5.40;2.30;;;28.60;65.30;;;;;;4992848;28;20220;-74
2023/10/22 12:45:45;;;;;;;5.60;4.30;;;28.90;62.60;;;;;;4995203;28;20201;-73